Time;durP1;ratioP1;P1;durP2;ratioP2;P2;SDS_P1;SDS_P2;PMS_P1;PMS_P2;Temp;Humidity;BMP_temperature;BMP_pressure;BME280_temperature;BME280_humidity;BME280_pressure;Samples;Min_cycle;Max_cycle;Signal;HPM_P1;HPM_P2
2022/11/30 00:00:58;;;;;;;24.35;11.98;;;8.30;99.90;;;;;;5109831;28;20077;-85
2022/11/30 00:03:24;;;;;;;24.17;11.93;;;8.30;99.90;;;;;;5109210;28;20082;-85
2022/11/30 00:05:50;;;;;;;20.60;12.00;;;8.30;99.90;;;;;;5108661;28;20032;-85
2022/11/30 00:08:16;;;;;;;24.38;13.13;;;8.30;99.90;;;;;;5109837;28;20208;-84
2022/11/30 00:10:42;;;;;;;23.20;11.80;;;8.30;99.90;;;;;;5110036;28;20711;-84
2022/11/30 00:13:08;;;;;;;23.70;12.20;;;8.20;99.90;;;;;;5096150;28;20503;-84
2022/11/30 00:15:38;;;;;;;22.65;12.40;;;8.30;99.90;;;;;;5096068;28;20050;-85
2022/11/30 00:18:04;;;;;;;26.60;12.50;;;8.30;99.90;;;;;;5095525;28;20080;-85
2022/11/30 00:20:29;;;;;;;24.38;13.35;;;8.20;99.90;;;;;;5113106;28;20056;-84
2022/11/30 00:22:55;;;;;;;25.88;13.73;;;8.20;99.90;;;;;;5111883;28;20036;-85
2022/11/30 00:25:22;;;;;;;28.15;13.45;;;8.20;99.90;;;;;;5112736;28;20047;-84
2022/11/30 00:27:48;;;;;;;25.42;13.05;;;8.20;99.90;;;;;;5096517;28;20031;-84
2022/11/30 00:30:14;;;;;;;25.90;12.90;;;8.30;99.90;;;;;;5112348;28;20061;-85
2022/11/30 00:32:39;;;;;;;24.42;13.02;;;8.20;99.90;;;;;;5096042;28;20031;-84
2022/11/30 00:35:05;;;;;;;25.25;14.15;;;8.20;99.90;;;;;;5112588;28;20046;-85
2022/11/30 00:37:31;;;;;;;26.48;13.43;;;8.20;99.90;;;;;;5113158;28;20552;-85
2022/11/30 00:39:56;;;;;;;27.05;13.18;;;8.20;99.90;;;;;;5112817;28;20551;-84
2022/11/30 00:42:22;;;;;;;24.85;12.25;;;8.20;99.90;;;;;;5111294;28;20459;-84
2022/11/30 00:44:47;;;;;;;26.50;13.48;;;8.20;99.90;;;;;;5112518;28;20406;-85
2022/11/30 00:47:13;;;;;;;29.80;14.35;;;8.20;99.90;;;;;;5112641;28;20075;-85
2022/11/30 00:49:38;;;;;;;22.63;12.30;;;8.20;99.90;;;;;;5112419;28;20089;-85
2022/11/30 00:52:04;;;;;;;24.50;13.73;;;8.20;99.90;;;;;;5112831;28;20067;-85
2022/11/30 00:54:30;;;;;;;24.50;12.70;;;8.20;99.90;;;;;;5111415;28;20518;-84
2022/11/30 00:56:55;;;;;;;28.63;14.32;;;8.20;99.90;;;;;;5095853;28;20050;-84
2022/11/30 00:59:21;;;;;;;29.42;14.55;;;8.20;99.90;;;;;;5095053;28;20435;-85
2022/11/30 01:01:46;;;;;;;25.42;14.48;;;8.20;99.90;;;;;;5094892;28;20054;-84
2022/11/30 01:04:12;;;;;;;27.48;14.65;;;8.10;99.90;;;;;;5094669;28;20042;-84
2022/11/30 01:06:38;;;;;;;23.42;12.48;;;8.10;99.90;;;;;;5094603;28;20454;-84
2022/11/30 01:09:03;;;;;;;24.42;13.68;;;8.10;99.90;;;;;;5113021;28;20082;-85
2022/11/30 01:11:30;;;;;;;26.63;14.82;;;8.10;99.90;;;;;;5095461;28;20077;-85
2022/11/30 01:13:58;;;;;;;31.13;16.48;;;8.00;99.90;;;;;;5112042;28;20062;-86
2022/11/30 01:16:27;;;;;;;25.98;14.52;;;8.00;99.90;;;;;;5095009;28;20181;-85
2022/11/30 01:18:53;;;;;;;28.55;15.15;;;8.00;99.90;;;;;;5095145;28;20035;-85
2022/11/30 01:21:22;;;;;;;29.95;15.75;;;8.00;99.90;;;;;;5094984;28;20519;-85
2022/11/30 01:23:48;;;;;;;27.20;15.05;;;8.00;99.90;;;;;;5109652;28;20038;-85
2022/11/30 01:26:15;;;;;;;29.88;14.65;;;7.90;99.90;;;;;;5112137;28;20411;-85
2022/11/30 01:28:42;;;;;;;26.15;13.60;;;7.90;99.90;;;;;;5093973;28;20040;-85
2022/11/30 01:31:10;;;;;;;25.73;13.63;;;7.90;99.90;;;;;;5095209;28;20028;-85
2022/11/30 01:33:36;;;;;;;30.13;14.60;;;7.80;99.90;;;;;;5111582;28;20043;-85
2022/11/30 01:36:16;;;;;;;27.02;14.57;;;7.80;99.90;;;;;;5111852;28;20047;-85
2022/11/30 01:38:45;;;;;;;26.67;13.88;;;7.70;99.90;;;;;;5112301;28;20496;-85
2022/11/30 01:41:13;;;;;;;28.00;14.60;;;7.60;99.90;;;;;;5093608;28;20043;-85
2022/11/30 01:43:46;;;;;;;28.83;15.15;;;7.70;99.90;;;;;;5110950;28;20050;-85
2022/11/30 01:46:26;;;;;;;24.70;12.35;;;7.60;99.90;;;;;;5111689;28;20096;-85
2022/11/30 01:49:17;;;;;;;23.70;12.00;;;7.50;99.90;;;;;;5094584;28;20043;-85
2022/11/30 01:52:01;;;;;;;23.23;11.23;;;7.50;99.90;;;;;;5083123;28;20113;-85
2022/11/30 01:54:34;;;;;;;27.98;13.55;;;7.50;99.90;;;;;;5110487;28;20553;-85
2022/11/30 01:57:08;;;;;;;26.83;13.95;;;7.50;99.90;;;;;;5094809;28;20047;-85
2022/11/30 01:59:34;;;;;;;28.10;14.68;;;7.50;99.90;;;;;;5110992;28;20080;-85
2022/11/30 02:01:59;;;;;;;28.55;14.57;;;7.50;99.90;;;;;;5110154;28;20035;-85
2022/11/30 02:04:31;;;;;;;30.05;15.48;;;7.50;99.90;;;;;;5110505;28;20066;-85
2022/11/30 02:06:58;;;;;;;29.98;14.88;;;7.50;99.90;;;;;;5110642;28;20066;-85
2022/11/30 02:09:26;;;;;;;30.67;14.77;;;7.60;99.90;;;;;;5111074;28;20257;-85
2022/11/30 02:11:52;;;;;;;29.52;14.35;;;7.50;99.90;;;;;;5093336;28;20036;-85
2022/11/30 02:14:30;;;;;;;30.60;16.17;;;7.60;99.90;;;;;;5093195;28;20656;-85
2022/11/30 02:17:02;;;;;;;37.00;17.35;;;7.60;99.90;;;;;;5093255;28;20043;-85
2022/11/30 02:19:30;;;;;;;34.03;15.55;;;7.60;99.90;;;;;;5110595;28;20122;-85
2022/11/30 02:22:16;;;;;;;34.70;16.60;;;7.60;99.90;;;;;;5110375;28;20046;-85
2022/11/30 02:25:06;;;;;;;30.02;15.68;;;7.70;99.90;;;;;;5092445;28;20121;-85
2022/11/30 02:28:05;;;;;;;29.05;14.95;;;7.70;99.90;;;;;;5093444;28;20035;-85
2022/11/30 02:30:36;;;;;;;32.15;14.60;;;7.70;99.90;;;;;;5093118;28;20035;-85
2022/11/30 02:33:10;;;;;;;31.05;16.15;;;7.70;99.90;;;;;;5069817;28;20036;-85
2022/11/30 02:35:41;;;;;;;29.02;15.73;;;7.70;99.90;;;;;;5056517;28;20891;-85
2022/11/30 02:38:07;;;;;;;31.00;14.43;;;7.70;99.90;;;;;;5103184;28;20419;-85
2022/11/30 02:40:33;;;;;;;32.42;16.13;;;7.70;99.90;;;;;;5105512;28;20047;-84
2022/11/30 02:43:03;;;;;;;34.00;16.13;;;7.70;99.90;;;;;;5098210;28;20035;-85
2022/11/30 02:45:33;;;;;;;32.08;16.10;;;7.70;99.90;;;;;;5090234;28;20040;-85
2022/11/30 02:48:09;;;;;;;32.55;17.25;;;7.70;99.90;;;;;;5094571;28;20075;-85
2022/11/30 02:50:41;;;;;;;33.60;17.13;;;7.70;99.90;;;;;;5110681;28;20269;-85
2022/11/30 02:53:08;;;;;;;34.65;16.48;;;7.70;99.90;;;;;;5092964;28;20088;-85
2022/11/30 02:55:34;;;;;;;32.80;17.65;;;7.70;99.90;;;;;;5076752;28;20032;-85
2022/11/30 02:58:00;;;;;;;35.42;18.33;;;7.80;99.90;;;;;;5090176;28;20031;-84
2022/11/30 03:00:25;;;;;;;35.88;17.63;;;7.80;99.90;;;;;;5090000;28;20881;-86
2022/11/30 03:02:51;;;;;;;34.30;17.02;;;7.80;99.90;;;;;;5109751;28;20061;-85
2022/11/30 03:05:16;;;;;;;37.30;16.48;;;7.80;99.90;;;;;;5092601;28;20062;-84
2022/11/30 03:07:42;;;;;;;34.30;17.85;;;7.80;99.90;;;;;;5093597;28;20047;-85
2022/11/30 03:10:08;;;;;;;32.75;17.63;;;7.80;99.90;;;;;;5110723;28;20517;-85
2022/11/30 03:12:34;;;;;;;37.45;17.88;;;7.80;99.90;;;;;;5109200;28;20036;-85
2022/11/30 03:15:00;;;;;;;34.53;19.10;;;7.80;99.90;;;;;;5092988;28;20131;-85
2022/11/30 03:17:25;;;;;;;34.35;17.83;;;7.80;99.90;;;;;;5109218;28;20050;-85
2022/11/30 03:19:51;;;;;;;36.25;17.05;;;7.80;99.90;;;;;;5093197;28;20040;-85
2022/11/30 03:22:16;;;;;;;37.85;18.42;;;7.80;99.90;;;;;;5092073;28;20040;-84
2022/11/30 03:24:42;;;;;;;33.72;18.00;;;7.80;99.90;;;;;;5092465;28;20114;-84
2022/11/30 03:27:08;;;;;;;29.23;16.52;;;7.80;99.90;;;;;;5093427;28;20031;-85
2022/11/30 03:29:33;;;;;;;37.55;17.98;;;7.80;99.90;;;;;;5109724;28;20039;-85
2022/11/30 03:31:59;;;;;;;34.42;17.65;;;7.80;99.90;;;;;;5093149;28;20043;-85
2022/11/30 03:34:26;;;;;;;32.63;17.60;;;7.80;99.90;;;;;;5092323;28;20047;-85
2022/11/30 03:36:52;;;;;;;31.35;16.83;;;7.80;99.90;;;;;;5092711;28;20558;-85
2022/11/30 03:39:18;;;;;;;34.95;19.02;;;7.80;99.90;;;;;;5092156;28;20035;-85
2022/11/30 03:41:43;;;;;;;36.15;17.67;;;7.80;99.90;;;;;;5109509;28;20061;-85
2022/11/30 03:44:09;;;;;;;32.58;16.50;;;7.80;99.90;;;;;;5109411;28;20031;-85
2022/11/30 03:46:34;;;;;;;38.42;17.67;;;7.80;99.90;;;;;;5095340;28;20051;-85
2022/11/30 03:49:00;;;;;;;32.33;17.70;;;7.80;99.90;;;;;;5097399;28;20074;-85
2022/11/30 03:51:25;;;;;;;33.33;17.70;;;7.80;99.90;;;;;;5114227;28;20038;-85
2022/11/30 03:53:51;;;;;;;34.28;17.58;;;7.80;99.90;;;;;;5095962;28;20053;-85
2022/11/30 03:56:17;;;;;;;31.02;16.52;;;7.80;99.90;;;;;;5113805;28;20046;-85
2022/11/30 03:58:42;;;;;;;35.22;18.15;;;7.90;99.90;;;;;;5096011;28;20085;-85
2022/11/30 04:01:11;;;;;;;33.30;17.88;;;7.80;99.90;;;;;;5096705;28;20036;-85
2022/11/30 04:03:38;;;;;;;30.63;16.60;;;7.90;99.90;;;;;;5113324;28;20126;-85
2022/11/30 04:06:05;;;;;;;35.25;17.30;;;7.90;99.90;;;;;;5096383;28;20035;-85
2022/11/30 04:08:31;;;;;;;31.02;17.02;;;7.90;99.90;;;;;;5113836;28;20036;-85
2022/11/30 04:10:58;;;;;;;33.35;18.25;;;7.90;99.90;;;;;;5096359;28;20039;-85
2022/11/30 04:13:24;;;;;;;32.17;18.23;;;7.90;99.90;;;;;;5096147;28;20058;-86
2022/11/30 04:15:52;;;;;;;35.63;18.27;;;7.90;99.90;;;;;;5113401;28;20108;-85
2022/11/30 04:18:18;;;;;;;33.75;18.58;;;7.90;99.90;;;;;;5095426;28;20031;-85
2022/11/30 04:20:44;;;;;;;33.08;18.63;;;7.90;99.90;;;;;;5096570;28;20109;-86
2022/11/30 04:23:11;;;;;;;31.33;17.83;;;7.90;99.90;;;;;;5095396;28;20035;-85
2022/11/30 04:25:38;;;;;;;33.65;18.35;;;7.90;99.90;;;;;;5095713;28;20044;-85
2022/11/30 04:28:03;;;;;;;33.15;19.38;;;7.90;99.90;;;;;;5113907;28;20086;-85
2022/11/30 04:30:29;;;;;;;37.35;19.17;;;7.90;99.90;;;;;;5111993;28;20540;-85
2022/11/30 04:32:55;;;;;;;37.70;19.55;;;7.90;99.90;;;;;;5096249;28;20043;-86
2022/11/30 04:35:20;;;;;;;30.92;17.10;;;7.90;99.90;;;;;;5111998;28;20066;-85
2022/11/30 04:37:46;;;;;;;32.38;17.25;;;7.90;99.90;;;;;;5095842;28;20071;-85
2022/11/30 04:40:12;;;;;;;36.08;17.85;;;7.90;99.90;;;;;;5112977;28;20065;-85
2022/11/30 04:42:37;;;;;;;36.28;18.27;;;7.90;99.90;;;;;;5094452;28;20046;-85
2022/11/30 04:45:03;;;;;;;30.73;17.02;;;7.90;99.90;;;;;;5095696;28;20039;-85
2022/11/30 04:47:29;;;;;;;31.73;17.33;;;7.90;99.90;;;;;;5112208;28;20023;-85
2022/11/30 04:49:54;;;;;;;34.42;18.45;;;7.90;99.90;;;;;;5113233;28;20598;-85
2022/11/30 04:52:20;;;;;;;28.50;16.02;;;7.90;99.90;;;;;;5094786;28;20168;-85
2022/11/30 04:54:45;;;;;;;30.95;16.30;;;7.90;99.90;;;;;;5095837;28;20044;-85
2022/11/30 04:57:12;;;;;;;30.05;17.90;;;7.90;99.90;;;;;;5093818;28;20044;-85
2022/11/30 04:59:38;;;;;;;29.23;15.98;;;7.90;99.90;;;;;;5095284;28;20123;-85
2022/11/30 05:02:03;;;;;;;31.52;18.15;;;7.90;99.90;;;;;;5112069;28;20035;-85
2022/11/30 05:04:29;;;;;;;33.45;16.83;;;7.90;99.90;;;;;;5111187;28;20148;-85
2022/11/30 05:06:55;;;;;;;30.75;17.13;;;7.90;99.90;;;;;;5095874;28;20444;-85
2022/11/30 05:09:20;;;;;;;31.80;16.35;;;7.90;99.90;;;;;;5108042;28;20472;-85
2022/11/30 05:11:47;;;;;;;29.15;16.20;;;7.90;99.90;;;;;;5091927;28;20040;-85
2022/11/30 05:14:13;;;;;;;28.80;15.23;;;7.90;99.90;;;;;;5092175;28;20040;-86
2022/11/30 05:16:38;;;;;;;29.63;16.42;;;7.90;99.90;;;;;;5109757;28;20038;-86
2022/11/30 05:19:04;;;;;;;30.65;16.40;;;7.90;99.90;;;;;;5112011;28;20039;-85
2022/11/30 05:21:30;;;;;;;28.05;15.75;;;7.90;99.90;;;;;;5094782;28;20049;-85
2022/11/30 05:23:56;;;;;;;32.30;15.65;;;7.90;99.90;;;;;;5094047;28;20404;-85
2022/11/30 05:26:22;;;;;;;28.70;15.23;;;7.90;99.90;;;;;;5112167;28;20481;-85
2022/11/30 05:28:47;;;;;;;26.95;14.57;;;7.90;99.90;;;;;;5094834;28;20039;-86
2022/11/30 05:31:13;;;;;;;28.33;14.63;;;7.90;99.90;;;;;;5111959;28;20127;-85
2022/11/30 05:33:38;;;;;;;30.58;15.85;;;7.90;99.90;;;;;;5111484;28;20035;-85
2022/11/30 05:36:04;;;;;;;33.42;16.55;;;7.90;99.90;;;;;;5094402;28;20043;-85
2022/11/30 05:38:30;;;;;;;29.38;16.60;;;7.90;99.90;;;;;;5111768;28;20036;-86
2022/11/30 05:41:00;;;;;;;30.13;15.75;;;7.90;99.90;;;;;;5111056;28;20085;-86
2022/11/30 05:43:26;;;;;;;32.22;16.10;;;7.90;99.90;;;;;;5111287;28;20385;-86
2022/11/30 05:45:52;;;;;;;30.60;15.32;;;7.90;99.90;;;;;;5111483;28;20054;-85
2022/11/30 05:48:17;;;;;;;27.48;15.30;;;7.80;99.90;;;;;;5093895;28;20039;-85
2022/11/30 05:50:43;;;;;;;26.45;14.70;;;7.80;99.90;;;;;;5112050;28;20051;-86
2022/11/30 05:53:08;;;;;;;27.95;14.48;;;7.80;99.90;;;;;;5110782;28;20122;-86
2022/11/30 05:55:35;;;;;;;27.30;15.63;;;7.80;99.90;;;;;;5093541;28;20530;-85
2022/11/30 05:58:00;;;;;;;31.05;16.83;;;7.80;99.90;;;;;;5093486;28;20050;-85
2022/11/30 06:00:26;;;;;;;29.60;15.80;;;7.80;99.90;;;;;;5110628;28;20453;-85
2022/11/30 06:02:56;;;;;;;29.05;14.77;;;7.80;99.90;;;;;;5109430;28;20040;-85
2022/11/30 06:05:22;;;;;;;30.40;15.10;;;7.80;99.90;;;;;;5109136;28;20054;-85
2022/11/30 06:07:48;;;;;;;33.60;16.50;;;7.80;99.90;;;;;;5108489;28;20035;-85
2022/11/30 06:10:13;;;;;;;33.70;17.05;;;7.80;99.90;;;;;;5110145;28;20043;-86
2022/11/30 06:12:39;;;;;;;33.72;16.58;;;7.80;99.90;;;;;;5110194;28;20118;-86
2022/11/30 06:15:05;;;;;;;32.05;17.73;;;7.80;99.90;;;;;;5110775;28;20504;-85
2022/11/30 06:17:31;;;;;;;32.50;15.73;;;7.80;99.90;;;;;;5088416;28;20036;-86
2022/11/30 06:19:56;;;;;;;33.50;16.13;;;7.80;99.90;;;;;;5077675;28;20036;-86
2022/11/30 06:22:22;;;;;;;31.55;15.75;;;7.70;99.90;;;;;;5089879;28;20039;-85
2022/11/30 06:24:47;;;;;;;31.67;16.35;;;7.80;99.90;;;;;;5099237;28;20039;-85
2022/11/30 06:27:13;;;;;;;35.25;16.42;;;7.70;99.90;;;;;;5111122;28;20031;-85
2022/11/30 06:29:38;;;;;;;34.67;17.05;;;7.70;99.90;;;;;;5094480;28;20039;-85
2022/11/30 06:32:06;;;;;;;32.33;15.38;;;7.70;99.90;;;;;;5093122;28;20035;-85
2022/11/30 06:34:32;;;;;;;29.10;14.73;;;7.70;99.90;;;;;;5110913;28;20043;-86
2022/11/30 06:36:57;;;;;;;31.08;15.32;;;7.80;99.90;;;;;;5109502;28;20035;-85
2022/11/30 06:39:23;;;;;;;30.23;16.30;;;7.70;99.90;;;;;;5110470;28;20047;-85
2022/11/30 06:41:49;;;;;;;28.90;14.93;;;7.70;99.90;;;;;;5110888;28;20493;-86
2022/11/30 06:44:14;;;;;;;31.48;15.27;;;7.70;99.90;;;;;;5092509;28;20381;-85
2022/11/30 06:46:40;;;;;;;30.92;13.80;;;7.70;99.90;;;;;;5110622;28;20059;-86
2022/11/30 06:49:06;;;;;;;29.15;14.93;;;7.70;99.90;;;;;;5093666;28;20057;-86
2022/11/30 06:51:32;;;;;;;28.15;13.55;;;7.70;99.90;;;;;;5110181;28;20035;-86
2022/11/30 06:53:58;;;;;;;27.25;13.70;;;7.70;99.90;;;;;;5110426;28;20035;-86
2022/11/30 06:56:23;;;;;;;27.45;13.98;;;7.70;99.90;;;;;;5109482;28;20118;-85
2022/11/30 06:58:50;;;;;;;26.85;14.20;;;7.70;99.90;;;;;;5105846;28;20449;-86
2022/11/30 07:01:16;;;;;;;26.60;13.48;;;7.70;99.90;;;;;;5104762;28;20039;-85
2022/11/30 07:03:42;;;;;;;26.92;13.75;;;7.70;99.90;;;;;;5110226;28;20053;-86
2022/11/30 07:06:12;;;;;;;28.52;13.82;;;7.70;99.90;;;;;;5109645;28;20418;-86
2022/11/30 07:08:39;;;;;;;23.92;14.18;;;7.70;99.90;;;;;;5093736;28;20111;-86
2022/11/30 07:11:05;;;;;;;25.50;13.60;;;7.70;99.90;;;;;;5110391;28;20044;-86
2022/11/30 07:13:31;;;;;;;23.08;13.20;;;7.70;99.90;;;;;;5109742;28;20027;-86
2022/11/30 07:15:57;;;;;;;24.98;13.40;;;7.70;99.90;;;;;;5092595;28;20507;-86
2022/11/30 07:18:23;;;;;;;21.00;12.02;;;7.70;99.90;;;;;;5109071;28;20040;-85
2022/11/30 07:20:48;;;;;;;21.33;12.27;;;7.70;99.90;;;;;;5109166;28;20047;-86
2022/11/30 07:26:06;;;;;;;22.98;13.05;;;7.70;99.90;;;;;;5109353;28;20043;-86
2022/11/30 07:28:40;;;;;;;22.10;12.02;;;7.60;99.90;;;;;;5110246;28;20032;-85
2022/11/30 07:31:14;;;;;;;23.73;12.43;;;7.60;99.90;;;;;;5092330;28;20036;-85
2022/11/30 07:33:40;;;;;;;22.20;11.85;;;7.70;99.90;;;;;;5110225;28;20050;-85
2022/11/30 07:36:07;;;;;;;21.92;11.82;;;7.60;99.90;;;;;;5092225;28;20492;-85
2022/11/30 07:38:33;;;;;;;22.20;13.02;;;7.60;99.90;;;;;;5092334;28;20036;-85
2022/11/30 07:40:58;;;;;;;19.50;10.68;;;7.60;99.90;;;;;;5092744;28;20412;-85
2022/11/30 07:43:24;;;;;;;24.55;12.20;;;7.60;99.90;;;;;;5109199;28;20120;-86
2022/11/30 07:45:53;;;;;;;21.73;11.30;;;7.60;99.90;;;;;;5080969;28;20036;-85
2022/11/30 07:48:19;;;;;;;21.85;12.23;;;7.60;99.90;;;;;;5089357;28;20040;-85
2022/11/30 07:50:46;;;;;;;22.27;12.43;;;7.60;99.90;;;;;;5100329;28;20042;-85
2022/11/30 07:53:11;;;;;;;21.25;12.02;;;7.60;99.90;;;;;;5109373;28;20070;-85
2022/11/30 07:55:37;;;;;;;24.35;12.15;;;7.60;99.90;;;;;;5092370;28;20072;-85
2022/11/30 07:58:03;;;;;;;23.48;12.30;;;7.60;99.90;;;;;;5108134;28;20046;-85
2022/11/30 08:00:28;;;;;;;22.70;12.73;;;7.60;99.90;;;;;;5109212;28;20135;-85
2022/11/30 08:02:54;;;;;;;25.30;12.70;;;7.60;99.90;;;;;;5108063;28;20040;-85
2022/11/30 08:05:20;;;;;;;23.38;12.25;;;7.60;99.90;;;;;;5105086;28;20052;-85
2022/11/30 08:07:50;;;;;;;24.98;12.25;;;7.60;99.90;;;;;;5085726;28;20044;-85
2022/11/30 08:10:17;;;;;;;25.95;13.70;;;7.60;99.90;;;;;;5071665;28;20047;-90
2022/11/30 08:12:43;;;;;;;23.05;12.73;;;7.60;99.90;;;;;;5087718;28;20036;-85
2022/11/30 08:15:09;;;;;;;20.00;11.25;;;7.60;99.90;;;;;;5105662;28;20595;-86
2022/11/30 08:17:35;;;;;;;21.90;12.02;;;7.60;99.90;;;;;;5103807;28;20032;-85
2022/11/30 08:20:00;;;;;;;24.42;12.50;;;7.60;99.90;;;;;;5088457;28;20042;-85
2022/11/30 08:22:26;;;;;;;19.52;10.32;;;7.60;99.90;;;;;;5088249;28;20093;-84
2022/11/30 08:24:51;;;;;;;20.67;10.75;;;7.60;99.90;;;;;;5105883;28;20039;-85
2022/11/30 08:27:17;;;;;;;20.65;10.88;;;7.60;99.90;;;;;;5091618;28;20058;-85
2022/11/30 08:29:42;;;;;;;19.77;10.38;;;7.60;99.90;;;;;;5091579;28;20028;-85
2022/11/30 08:32:08;;;;;;;17.67;11.43;;;7.60;99.90;;;;;;5108486;28;20531;-85
2022/11/30 08:34:33;;;;;;;22.88;11.48;;;7.60;99.90;;;;;;5095218;28;20035;-85
2022/11/30 08:36:59;;;;;;;21.15;10.43;;;7.60;99.90;;;;;;5094405;28;20048;-85
2022/11/30 08:39:27;;;;;;;19.15;11.52;;;7.60;99.90;;;;;;5111668;28;20040;-84
2022/11/30 08:41:52;;;;;;;18.83;10.52;;;7.60;99.90;;;;;;5111379;28;20054;-85
2022/11/30 08:44:18;;;;;;;18.40;10.43;;;7.60;99.90;;;;;;5111747;28;20047;-85
2022/11/30 08:46:44;;;;;;;19.40;10.73;;;7.60;99.90;;;;;;5093963;28;20539;-85
2022/11/30 08:49:09;;;;;;;20.02;11.20;;;7.60;99.90;;;;;;5095480;28;20047;-85
2022/11/30 08:51:35;;;;;;;24.27;13.43;;;7.60;99.90;;;;;;5111785;28;20111;-85
2022/11/30 08:54:00;;;;;;;25.05;13.85;;;7.60;99.90;;;;;;5094963;28;20047;-85
2022/11/30 08:56:26;;;;;;;21.80;12.68;;;7.60;99.90;;;;;;5094705;28;20035;-85
2022/11/30 08:58:53;;;;;;;19.55;11.23;;;7.60;99.90;;;;;;5111939;28;20048;-86
2022/11/30 09:01:22;;;;;;;17.77;10.77;;;7.60;99.90;;;;;;5095291;28;20103;-85
2022/11/30 09:03:51;;;;;;;16.50;9.75;;;7.60;99.90;;;;;;5111659;28;20529;-85
2022/11/30 09:06:19;;;;;;;17.58;10.18;;;7.60;99.90;;;;;;5111798;28;20073;-85
2022/11/30 09:08:46;;;;;;;19.17;10.80;;;7.70;99.90;;;;;;5095361;28;20067;-85
2022/11/30 09:11:23;;;;;;;17.83;10.43;;;7.70;99.90;;;;;;5111072;28;20523;-85
2022/11/30 09:13:50;;;;;;;19.95;11.68;;;7.70;99.90;;;;;;5110320;28;20067;-85
2022/11/30 09:16:17;;;;;;;20.10;10.65;;;7.70;99.90;;;;;;5110038;28;20540;-85
2022/11/30 09:18:43;;;;;;;18.48;11.07;;;7.70;99.90;;;;;;5111790;28;20119;-85
2022/11/30 09:21:12;;;;;;;17.95;10.55;;;7.70;99.90;;;;;;5094535;28;20142;-85
2022/11/30 09:23:38;;;;;;;18.50;10.73;;;7.70;99.90;;;;;;5111052;28;20514;-85
2022/11/30 09:26:06;;;;;;;17.20;10.63;;;7.70;99.90;;;;;;5100758;28;20089;-86
2022/11/30 09:28:34;;;;;;;17.30;9.35;;;7.70;99.90;;;;;;5105013;28;20080;-85
2022/11/30 09:31:26;;;;;;;17.27;9.77;;;7.70;99.90;;;;;;5111647;28;20046;-85
2022/11/30 09:33:54;;;;;;;15.20;8.85;;;7.80;99.90;;;;;;5086622;28;20040;-85
2022/11/30 09:36:21;;;;;;;15.52;9.10;;;7.70;99.90;;;;;;5109073;27;20101;-85
2022/11/30 09:38:47;;;;;;;17.67;10.07;;;7.80;99.90;;;;;;5071869;28;20619;-85
2022/11/30 09:41:38;;;;;;;15.30;9.50;;;7.80;99.90;;;;;;5094227;28;20130;-85
2022/11/30 09:44:33;;;;;;;15.13;9.35;;;7.80;99.90;;;;;;5052937;28;20044;-85
2022/11/30 09:47:17;;;;;;;17.48;9.75;;;7.80;99.90;;;;;;5102350;28;20046;-85
2022/11/30 09:49:44;;;;;;;16.95;8.73;;;7.80;99.90;;;;;;5111656;28;20480;-85
2022/11/30 09:52:16;;;;;;;15.93;8.98;;;7.80;99.90;;;;;;5109452;28;20106;-85
2022/11/30 09:54:44;;;;;;;19.05;10.55;;;7.80;99.90;;;;;;5094176;28;20050;-85
2022/11/30 09:57:32;;;;;;;16.38;9.90;;;7.80;99.90;;;;;;5097728;28;20496;-85
2022/11/30 10:00:11;;;;;;;16.00;9.38;;;7.90;99.90;;;;;;5071020;28;20043;-85
2022/11/30 10:02:37;;;;;;;16.00;9.95;;;7.80;99.90;;;;;;5112433;27;20047;-85
2022/11/30 10:05:21;;;;;;;15.95;9.43;;;7.80;99.90;;;;;;5108343;28;20050;-85
2022/11/30 10:08:04;;;;;;;16.02;9.18;;;7.90;99.90;;;;;;5093745;28;20130;-86
2022/11/30 10:10:42;;;;;;;14.18;8.35;;;7.90;99.90;;;;;;5093619;28;20107;-85
2022/11/30 10:13:45;;;;;;;18.15;9.38;;;7.90;99.90;;;;;;5110309;28;20943;-85
2022/11/30 10:16:41;;;;;;;15.32;8.35;;;7.90;99.90;;;;;;5109963;28;20043;-85
2022/11/30 10:19:32;;;;;;;15.63;9.20;;;7.90;99.90;;;;;;5094059;28;20043;-85
2022/11/30 10:22:17;;;;;;;15.85;9.35;;;7.90;99.90;;;;;;5092440;28;20056;-85
2022/11/30 10:25:12;;;;;;;15.95;8.82;;;7.90;99.90;;;;;;5110132;28;20039;-85
2022/11/30 10:28:04;;;;;;;14.65;8.48;;;7.90;99.90;;;;;;5109338;28;20164;-86
2022/11/30 10:30:34;;;;;;;16.35;9.48;;;7.90;99.90;;;;;;5110574;28;20043;-86
2022/11/30 10:33:24;;;;;;;15.35;8.65;;;7.90;99.90;;;;;;5109469;28;20106;-86
2022/11/30 10:36:02;;;;;;;16.92;9.48;;;7.90;99.90;;;;;;5109903;28;20043;-86
2022/11/30 10:38:41;;;;;;;15.70;8.93;;;7.90;99.90;;;;;;5093130;28;20071;-86
2022/11/30 10:41:19;;;;;;;17.33;10.48;;;7.90;99.90;;;;;;5092962;28;20040;-85
2022/11/30 10:43:50;;;;;;;15.27;8.38;;;7.90;99.90;;;;;;5100280;28;20435;-85
2022/11/30 10:46:22;;;;;;;16.27;8.80;;;7.90;99.90;;;;;;5109495;28;20028;-85
2022/11/30 10:48:55;;;;;;;14.35;8.82;;;7.90;99.90;;;;;;5109783;28;20589;-85
2022/11/30 10:51:21;;;;;;;;;;;7.90;99.90;;;;;;5109769;28;20040;-85
2022/11/30 10:53:46;;;;;;;15.80;8.48;;;7.90;99.90;;;;;;5109888;28;19927;-85
2022/11/30 10:56:13;;;;;;;16.27;8.57;;;7.90;99.90;;;;;;5108531;28;20117;-86
2022/11/30 10:58:57;;;;;;;15.02;8.38;;;7.90;99.90;;;;;;5092419;28;20039;-85
2022/11/30 11:01:41;;;;;;;17.92;9.95;;;7.90;99.90;;;;;;5110037;28;20050;-86
2022/11/30 11:04:22;;;;;;;16.77;9.45;;;8.00;99.90;;;;;;5092347;28;20053;-86
2022/11/30 11:06:57;;;;;;;18.35;10.45;;;7.90;99.90;;;;;;5092271;28;20075;-85
2022/11/30 11:09:34;;;;;;;17.35;10.55;;;7.90;99.90;;;;;;5109334;28;20046;-86
2022/11/30 11:12:19;;;;;;;18.20;9.45;;;8.00;99.90;;;;;;5109908;28;20489;-86
2022/11/30 11:14:45;;;;;;;14.88;8.00;;;8.00;99.90;;;;;;5109793;28;20035;-86
2022/11/30 11:17:17;;;;;;;17.92;10.15;;;7.90;99.90;;;;;;5092400;28;20491;-86
2022/11/30 11:19:44;;;;;;;15.15;9.43;;;7.90;99.90;;;;;;5093246;28;20043;-88
2022/11/30 11:22:22;;;;;;;17.45;9.82;;;7.90;99.90;;;;;;5089755;28;20067;-86
2022/11/30 11:24:50;;;;;;;15.90;9.98;;;8.00;99.90;;;;;;5083459;28;20043;-85
2022/11/30 11:27:27;;;;;;;16.83;10.35;;;8.00;99.90;;;;;;5089253;28;20040;-85
2022/11/30 11:30:01;;;;;;;15.38;9.38;;;7.90;99.90;;;;;;5090075;28;20401;-85
2022/11/30 11:32:29;;;;;;;15.52;9.20;;;7.90;99.90;;;;;;5106217;28;20046;-86
2022/11/30 11:34:55;;;;;;;15.50;9.05;;;7.90;99.90;;;;;;5090224;28;20075;-86
2022/11/30 11:37:27;;;;;;;16.63;9.70;;;7.90;99.90;;;;;;5089885;28;20075;-85
2022/11/30 11:40:11;;;;;;;18.88;10.50;;;8.00;99.90;;;;;;5070336;28;20308;-85
2022/11/30 11:42:50;;;;;;;15.30;9.20;;;8.00;99.90;;;;;;5069195;28;20048;-86
2022/11/30 11:45:28;;;;;;;17.05;10.65;;;8.00;99.90;;;;;;5067073;28;20041;-86
2022/11/30 11:48:02;;;;;;;19.30;11.18;;;8.00;99.90;;;;;;5052737;28;20052;-86
2022/11/30 11:50:34;;;;;;;18.80;11.32;;;8.00;99.90;;;;;;5069354;28;20438;-86
2022/11/30 11:53:22;;;;;;;19.10;11.07;;;8.00;99.90;;;;;;5069323;28;20572;-87
2022/11/30 11:55:51;;;;;;;21.17;12.45;;;8.00;99.90;;;;;;5052484;28;20084;-86
2022/11/30 11:58:25;;;;;;;20.67;12.15;;;8.00;99.90;;;;;;5102839;28;20039;-86
2022/11/30 12:00:54;;;;;;;21.38;12.27;;;8.00;99.90;;;;;;5117710;28;20086;-86
2022/11/30 12:03:37;;;;;;;26.80;14.13;;;8.00;99.90;;;;;;5072702;28;20126;-87
2022/11/30 12:06:09;;;;;;;22.80;12.65;;;8.00;99.90;;;;;;5089915;28;20040;-86
2022/11/30 12:08:56;;;;;;;23.97;12.33;;;8.00;99.90;;;;;;5093526;28;20036;-86
2022/11/30 12:11:46;;;;;;;22.77;11.48;;;8.00;99.90;;;;;;5093431;28;20040;-86
2022/11/30 12:14:14;;;;;;;24.98;13.52;;;8.00;99.90;;;;;;5093168;28;20043;-86
2022/11/30 12:17:07;;;;;;;27.00;14.00;;;8.00;99.90;;;;;;5093122;28;20074;-86
2022/11/30 12:20:00;;;;;;;24.00;13.48;;;8.00;99.90;;;;;;5076670;28;20400;-87
2022/11/30 12:22:41;;;;;;;22.92;12.43;;;8.10;99.90;;;;;;5092745;28;20051;-86
2022/11/30 12:25:24;;;;;;;26.30;14.35;;;8.10;99.90;;;;;;5093168;28;20056;-86
2022/11/30 12:28:14;;;;;;;26.77;14.30;;;8.10;99.90;;;;;;5093375;28;20055;-86
2022/11/30 12:31:14;;;;;;;24.65;14.25;;;8.10;99.90;;;;;;5092631;28;20036;-86
2022/11/30 12:34:06;;;;;;;25.17;15.38;;;8.10;99.90;;;;;;5088990;28;20040;-86
2022/11/30 12:36:59;;;;;;;26.08;15.27;;;8.10;99.90;;;;;;5074488;28;20130;-86
2022/11/30 12:39:34;;;;;;;27.23;15.02;;;8.10;99.90;;;;;;5075760;28;20043;-86
2022/11/30 12:42:14;;;;;;;30.48;16.83;;;8.10;99.90;;;;;;5089492;28;20065;-86
2022/11/30 12:45:02;;;;;;;29.15;16.00;;;8.10;99.90;;;;;;5075364;28;20412;-86
2022/11/30 12:47:43;;;;;;;32.90;16.65;;;8.10;99.90;;;;;;5081379;28;20048;-86
2022/11/30 12:50:43;;;;;;;30.17;17.05;;;8.10;99.90;;;;;;5092680;28;20036;-86
2022/11/30 12:53:14;;;;;;;32.33;16.95;;;8.10;99.90;;;;;;5109300;28;20051;-87
2022/11/30 12:55:40;;;;;;;30.35;16.23;;;8.10;99.90;;;;;;5075772;28;20093;-86